Hit Tracker is now ESPN Home Run Tracker! Hit Tracker founder Greg Rybarczyk is now collaborating with the ESPN Stats & Information Group to continue tracking all MLB home runs, and helping baseball fans know "How Far It Really Went!™" Please credit any information on this site to ESPN Stats & Information Group. For more information and analysis on home runs, please contact founder Greg Rybarczyk. E-Mail ESPN Home Run Tracker
Main Page | Ballparks | Park Overlays | Glossary | Highlight Homers | Feedback | Bio | 3 Types of HR's | AAA Home Run Derby Last Updated: July 8, 2014, 10:35 pm PST
Welcome to the ESPN Home Run Tracker! Check out the ESPN MLB Scoreboard throughout the 2014 season! Contact us at grybar@hittrackeronline.com.
Season:
Ballpark detail for PNC Park
Ballpark # of Home Runs HR per game Avg.
True
Distance
Avg.
Speed
Off
Bat
Avg.
Std.
Dist.
PNC Park 67 1.40 397.7 103.5 395.9

Scatter Plot of Home Runs PNC Park
 Overlay Ballpark:
Without range rings   With range rings

2014 Season Home Runs for PNC Park
Click headers to sort
Date Video Path Hitter Hitter
Team
Pitcher Pitcher
Team
INN Ballpark Type/
Luck
True
Dist.
Speed
Off
Bat
Elev.
Angle
Horiz.
Angle
Apex Impact Due To: Std.
Dist.
#
Parks
Wind ^ Temp. Alt.
04/04/14 Video View Ishikawa, Travis PIT Miller, Shelby STL 4 PNC Park PL 359 97.9 38.5 63.4 125 16 -5 4 344 13
07/06/14 Video View Byrd, Marlon PHI Locke, Jeff PIT 7 PNC Park PL 413 103.6 32.2 112.2 104 14 1 3 397 30
04/22/14 Video View McCutchen, Andrew PIT Cueto, Johnny CIN 9 PNC Park JE 357 95.4 31.6 58.5 79 12 -3 1 346 8
04/03/14 Video View Olt, Mike CHC Rodriguez, Wandy PIT 2 PNC Park JE/L 352 92.9 34.1 65.2 90 11 -2 2 341 2
07/03/14 Video View Peralta, David ARI Worley, Vance PIT 6 PNC Park JE 376 99.0 28.3 63.7 71 11 0 1 364 13
05/24/14 Video View Desmond, Ian WSH Cole, Gerrit PIT 4 PNC Park PL 416 102.1 29.8 101.0 99 8 0 2 407 30
04/05/14 Video View Molina, Yadier STL Liriano, Francisco PIT 6 PNC Park PL 382 100.5 30.8 116.4 88 7 -5 1 377 30
04/17/14 Video View McCutchen, Andrew PIT Gallardo, Yovani MIL 1 PNC Park PL 419 107.0 20.5 92.2 71 5 0 0 413 15
05/22/14 Video View Desmond, Ian WSH Volquez, Edinson PIT 4 PNC Park PL 409 100.7 31.5 83.3 112 5 -1 2 403 15
05/24/14 Video View Walker, Neil PIT Strasburg, Stephen WSH 4 PNC Park JE/L 406 99.8 27.8 93.5 87 4 0 1 401 5
05/09/14 Video View Peralta, Jhonny STL Gomez, Jeanmar PIT 7 PNC Park JE 412 101.5 26.4 85.2 85 4 0 1 407 10
06/06/14 Video View McCutchen, Andrew PIT Lohse, Kyle MIL 3 PNC Park PL 397 103.3 27.9 111.9 81 4 1 2 393 30
06/09/14 Video View McCutchen, Andrew PIT Jackson, Edwin CHC 3 PNC Park JE 344 93.9 34.9 58.1 93 4 0 2 339 13
04/02/14 Video View Rizzo, Anthony CHC Gomez, Jeanmar PIT 12 PNC Park PL 383 101.5 29.3 63.5 82 3 -2 1 380 29
05/03/14 Video View Bautista, Jose TOR Mazzaro, Vin PIT 6 PNC Park ND 399 107.3 27.9 124.0 79 2 -2 1 397 30
05/04/14 Video View Cabrera, Melky TOR Volquez, Edinson PIT 5 PNC Park JE 400 104.7 23.0 79.1 67 2 0 0 398 17
05/09/14 Video View Walker, Neil PIT Martinez, Carlos STL 7 PNC Park ND 403 105.1 28.7 64.8 89 2 0 1 399 30
05/20/14 Video View Cruz, Nelson BAL Liriano, Francisco PIT 5 PNC Park PL 428 110.7 19.6 86.1 64 2 0 0 425 23
06/06/14 Video View Mercer, Jordy PIT Lohse, Kyle MIL 5 PNC Park JE 389 102.0 26.4 108.2 73 2 0 1 387 29
07/02/14 Video View Polanco, Gregory PIT Anderson, Chase ARI 2 PNC Park JE 396 105.7 24.1 71.5 67 2 1 1 393 28
03/31/14 Video View Walker, Neil PIT Villanueva, Carlos CHC 10 PNC Park JE 354 96.0 31.2 62.1 83 1 -1 2 353 20
04/04/14 Video View Alvarez, Pedro PIT Miller, Shelby STL 2 PNC Park PL 417 107.2 25.4 105.8 80 1 -1 1 416 30
05/02/14 Video View Rasmus, Colby TOR Cole, Gerrit PIT 4 PNC Park JE 390 100.1 31.7 104.9 107 1 -3 2 390 30
05/02/14 Video View Alvarez, Pedro PIT Santos, Sergio TOR 9 PNC Park JE 408 101.2 27.7 84.6 94 1 -2 1 408 15
05/05/14 Video View Alvarez, Pedro PIT Petit, Yusmeiro SF 3 PNC Park PL 418 102.7 27.5 94.2 97 1 -2 1 417 25
05/09/14 Video View Craig, Allen STL Liriano, Francisco PIT 4 PNC Park JE 410 102.3 25.4 96.0 79 1 1 1 408 21
05/20/14 Video View Davis, Chris BAL Hughes, Jared PIT 7 PNC Park PL 421 108.0 21.5 84.0 70 1 0 0 420 24
06/09/14 Video View Davis, Ike PIT Villanueva, Carlos CHC 8 PNC Park PL 416 101.9 27.5 88.5 95 1 0 1 414 22
05/25/14 Video View Harrison, Josh PIT Fister, Doug WSH 6 PNC Park JE 408 101.1 27.2 95.9 90 0 0 0 408 19
04/04/14 Video View Alvarez, Pedro PIT Miller, Shelby STL 4 PNC Park PL 434 115.5 20.0 79.6 62 0 -1 0 435 30
04/04/14 Video View Carpenter, Matt STL Cole, Gerrit PIT 5 PNC Park ND 400 108.4 26.0 61.3 74 0 -2 1 401 30
04/17/14 Video View Harrison, Josh PIT Wooten, Rob MIL 7 PNC Park PL 370 101.1 28.5 120.3 76 0 -2 1 371 30
04/18/14 Video View Gomez, Carlos MIL Morton, Charlie PIT 5 PNC Park ND 457 109.1 28.4 90.7 119 0 -1 2 455 30
04/19/14 Video View Reynolds, Mark MIL Rodriguez, Wandy PIT 4 PNC Park PL 419 106.7 22.5 83.5 72 0 0 1 418 24
04/19/14 Video View Braun, Ryan MIL Watson, Tony PIT 7 PNC Park JE 416 113.9 17.5 94.7 52 0 0 0 416 17
04/19/14 Video View Braun, Ryan MIL Grilli, Jason PIT 9 PNC Park PL 417 102.5 27.8 93.5 99 0 -2 1 417 22
04/21/14 Video View Davis, Ike PIT Leake, Mike CIN 4 PNC Park JE 362 97.6 28.7 65.7 76 0 0 1 361 16
04/21/14 Video View McCutchen, Andrew PIT Parra, Manny CIN 8 PNC Park PL 414 106.7 24.3 76.5 74 0 0 1 412 29
04/23/14 Video View McCutchen, Andrew PIT Simon, Alfredo CIN 3 PNC Park PL 412 107.3 25.4 108.2 78 0 -2 1 412 30
05/02/14 Video View Marte, Starling PIT Santos, Sergio TOR 9 PNC Park PL 427 104.9 25.6 92.9 90 0 -1 1 427 27
05/11/14 Video View Mercer, Jordy PIT Miller, Shelby STL 4 PNC Park PL 389 101.4 30.2 111.6 93 0 0 2 388 30
05/20/14 Video View Davis, Ike PIT Gonzalez, Miguel BAL 7 PNC Park PL 379 98.8 33.9 73.1 114 0 0 2 377 24
05/20/14 Video View Davis, Chris BAL Gomez, Jeanmar PIT 9 PNC Park JE 398 106.7 22.5 76.0 63 0 0 1 397 25
05/21/14 Video View Cruz, Nelson BAL Rodriguez, Wandy PIT 2 PNC Park JE 401 111.5 20.3 104.2 55 0 0 0 401 28
05/23/14 Video View Alvarez, Pedro PIT Zimmermann, Jordan WSH 4 PNC Park PL 424 105.6 23.2 88.8 76 0 -1 1 424 26
06/10/14 Video View McCutchen, Andrew PIT Wood, Travis CHC 3 PNC Park PL 425 110.9 19.3 93.2 60 0 0 0 425 23
06/17/14 Video View Frazier, Todd CIN Grilli, Jason PIT 9 PNC Park PL 442 107.5 24.3 90.8 88 0 0 1 440 29
06/19/14 Video View Mesoraco, Devin CIN Grilli, Jason PIT 9 PNC Park PL 387 104.1 29.0 122.4 82 0 1 2 385 30
06/26/14 Video View Duda, Lucas NYM Worley, Vance PIT 4 PNC Park JE 341 94.8 29.9 122.6 72 0 1 1 339 6
06/26/14 Video View Polanco, Gregory PIT Matsuzaka, Daisuke NYM 5 PNC Park ND 406 104.0 30.7 69.9 103 0 1 2 403 30
07/05/14 Video View McCutchen, Andrew PIT Buchanan, David PHI 1 PNC Park PL 419 104.7 24.4 96.1 78 0 1 1 417 26
07/05/14 Video View Asche, Cody PHI Volquez, Edinson PIT 4 PNC Park JE 389 99.8 28.9 74.4 89 0 1 2 387 25
07/05/14 Video View Byrd, Marlon PHI Melancon, Mark PIT 9 PNC Park JE 356 95.0 34.2 67.3 101 0 2 2 352 13
04/17/14 Video View Alvarez, Pedro PIT Wang, Wei-Chung MIL 8 PNC Park PL 411 109.6 22.8 105.9 69 -1 -1 0 412 30
04/20/14 Video View Reynolds, Mark MIL Cole, Gerrit PIT 8 PNC Park JE 403 100.9 26.7 83.9 87 -1 0 1 403 14
04/20/14 Video View Davis, Khris MIL Gomez, Jeanmar PIT 14 PNC Park PL 398 106.0 26.8 115.0 79 -1 0 1 398 30
06/09/14 Video View Castro, Starlin CHC Hughes, Jared PIT 9 PNC Park PL 427 110.1 20.9 95.8 65 -1 0 1 428 26
06/11/14 Video View McCutchen, Andrew PIT Hammel, Jason CHC 1 PNC Park JE/L 370 101.6 37.0 112.2 134 -1 -2 4 369 30
04/05/14 Video View Peralta, Jhonny STL Gomez, Jeanmar PIT 9 PNC Park PL 358 100.4 27.3 122.0 69 -2 -1 1 360 29
05/20/14 Video View Davis, Chris BAL Liriano, Francisco PIT 5 PNC Park PL 403 107.3 24.4 71.2 73 -2 0 1 404 30
06/10/14 Video View Rizzo, Anthony CHC Liriano, Francisco PIT 1 PNC Park ND 414 106.0 29.6 69.8 101 -2 1 2 413 30
05/04/14 Video View Rasmus, Colby TOR Volquez, Edinson PIT 2 PNC Park PL 376 99.6 31.7 69.1 101 -3 -2 2 380 29
04/17/14 Video View Sanchez, Gaby PIT Wang, Wei-Chung MIL 8 PNC Park JE 338 95.3 30.1 121.9 76 -4 -2 1 343 19
05/07/14 Video View Belt, Brandon SF Cole, Gerrit PIT 1 PNC Park PL 407 102.0 27.0 83.8 95 -4 -1 1 410 25
06/29/14 Video View Alvarez, Pedro PIT Colon, Bartolo NYM 4 PNC Park ND 393 106.0 28.6 59.8 88 -8 1 2 397 30
04/20/14 Video View Braun, Ryan MIL Grilli, Jason PIT 9 PNC Park PL 391 106.8 25.5 113.9 78 -9 0 1 398 30
04/20/14 Video View Walker, Neil PIT Estrada, Marco MIL 4 PNC Park ND 394 107.0 34.2 64.6 129 -12 0 3 402 30


About HitTracker | Contact Us
© 2006-2009 HitTrackerOnline